Bryan's Hourly Summary for Saturday, May 12, 2018
Hour Temp
(f)
RH
(%)
Solar Rad.
(MJ/m2)
Rainfall
(in)
Wind
(mph)
5/12/2018 12:00 AM 75 71 0 0 6.97
5/12/2018 1:00 AM 74 77 0 0 6.92
5/12/2018 2:00 AM 73 84 0 0 6.41
5/12/2018 3:00 AM 72 88 0 0 7.05
5/12/2018 4:00 AM 72 90 0 0 6.86
5/12/2018 5:00 AM 73 89 0 0 6.81
5/12/2018 6:00 AM 73 88 0 0 7.57
5/12/2018 7:00 AM 73 89 0.01 0 6.84
5/12/2018 8:00 AM 73 86 0.2 0 5.74
5/12/2018 9:00 AM 75 81 0.78 0 7
5/12/2018 10:00 AM 77 72 1.77 0 8.45
5/12/2018 11:00 AM 80 60 2.49 0 8.72
5/12/2018 12:00 PM 82 52 2.77 0 8.71
5/12/2018 1:00 PM 84 50 3.45 0 8.44
5/12/2018 2:00 PM 86 43 3.47 0 8.52
5/12/2018 3:00 PM 87 42 2.92 0 7.75
5/12/2018 4:00 PM 88 41 3.11 0 7.8
5/12/2018 5:00 PM 88 40 2.45 0 8.18
5/12/2018 6:00 PM 88 40 1.76 0 8.02
5/12/2018 7:00 PM 87 42 0.9 0 7.32
5/12/2018 8:00 PM 85 48 0.26 0 6.68
5/12/2018 9:00 PM 83 54 0.01 0 5.73
5/12/2018 10:00 PM 81 58 0 0 7.92
5/12/2018 11:00 PM 79 68 0 0 6.89
Data Summary 79 64 26.35 0.00 7.39